KDIK

Dickinson Theodore Roosevelt Regional Airport

Airport
ICAO code
KDIK
IATA Code
DIK
Summary
ICAO Region
NAM
ICAO Territory
Location

Dickinson, North Dakota

Serving
Dickinson
Elevation
2592 ft
Coordinates
46° 47' 50" N , 102° 48' 7" W
KCC
Airport CFIT
Altimeter Temperature Error Correction
Airport WX
Cumulonimbus
Metar
KDIK 270306Z AUTO 33020G34KT 1 3/4SM -SN BR BKN013 OVC026 M06/M08 A2950 RMK AO2 PK WND 34034/0303 P0000 T10561078

Description

Dickinson Theodore Roosevelt Regional Airport, formerly known as Dickinson Municipal Airport, is a public use airport located 6 nm south of the central business district of Dickinson, a city in Stark County, North Dakota.

Airport map

Aerial View

SKYbrary Partners:

Safety knowledge contributed by: